createdAt,value
2022-10-21T00:00:25.193Z,85.03
2022-10-21T00:01:26.736Z,84.65
2022-10-21T00:02:28.207Z,84.42
2022-10-21T00:03:29.721Z,84.16
2022-10-21T00:04:31.846Z,84.19
2022-10-21T00:05:33.288Z,84.33
2022-10-21T00:06:34.939Z,84.61
2022-10-21T00:07:36.383Z,84.82
2022-10-21T00:08:38.138Z,84.74
2022-10-21T00:09:39.679Z,85.36
2022-10-21T00:10:41.133Z,85.16
2022-10-21T00:11:42.615Z,84.77
2022-10-21T00:12:44.081Z,85.11
2022-10-21T00:13:45.615Z,85.20
2022-10-21T00:14:47.094Z,85.09
2022-10-21T00:16:04.928Z,84.97
2022-10-21T00:17:06.383Z,85.45
2022-10-21T00:18:07.869Z,85.54
2022-10-21T00:19:09.705Z,85.70
2022-10-21T00:20:12.017Z,85.75
2022-10-21T00:21:14.745Z,86.55
2022-10-21T00:22:16.235Z,86.80
2022-10-21T00:23:17.710Z,87.09
2022-10-21T00:24:19.156Z,87.04
2022-10-21T00:25:20.715Z,87.25
2022-10-21T00:26:22.192Z,87.32
2022-10-21T00:27:23.708Z,87.46
2022-10-21T00:28:25.290Z,87.48
2022-10-21T00:29:26.719Z,87.66
2022-10-21T00:30:28.245Z,88.26
2022-10-21T00:31:30.595Z,88.21
2022-10-21T00:32:32.095Z,88.17
2022-10-21T00:33:33.571Z,88.48
2022-10-21T00:34:35.204Z,88.54
2022-10-21T00:35:36.692Z,89.17
2022-10-21T00:36:38.155Z,88.95
2022-10-21T00:37:39.959Z,88.75
2022-10-21T00:38:42.359Z,88.82
2022-10-21T00:39:43.818Z,88.87
2022-10-21T00:40:45.283Z,88.47
2022-10-21T00:41:46.772Z,88.28
2022-10-21T00:42:48.467Z,88.03
2022-10-21T00:44:09.166Z,87.75
2022-10-21T00:45:13.482Z,88.18
2022-10-21T00:46:18.394Z,88.25
2022-10-21T00:47:20.208Z,88.44
2022-10-21T00:48:24.263Z,88.33
2022-10-21T00:49:31.864Z,88.39
2022-10-21T00:51:05.560Z,88.28
2022-10-21T00:52:08.170Z,88.09
2022-10-21T00:53:10.738Z,87.77
2022-10-21T00:54:12.197Z,87.52
2022-10-21T00:55:13.719Z,87.72
2022-10-21T00:56:16.899Z,87.52
2022-10-21T00:57:18.402Z,87.33
2022-10-21T00:58:20.942Z,87.12
2022-10-21T00:59:25.710Z,86.98
2022-10-21T01:00:27.217Z,86.62
2022-10-21T01:01:28.761Z,86.60
2022-10-21T01:02:30.251Z,86.37
2022-10-21T01:03:31.859Z,86.54
2022-10-21T01:04:33.309Z,86.01
2022-10-21T01:05:36.372Z,86.12
2022-10-21T01:06:37.953Z,86.36
2022-10-21T01:07:41.194Z,86.46
2022-10-21T01:08:43.004Z,86.21
2022-10-21T01:09:44.502Z,86.05
2022-10-21T01:10:45.987Z,85.48
2022-10-21T01:11:47.633Z,85.26
2022-10-21T01:12:53.094Z,85.36
2022-10-21T01:14:01.083Z,85.28
2022-10-21T01:15:14.331Z,84.98
2022-10-21T01:16:18.359Z,85.28
2022-10-21T01:17:43.705Z,85.36
2022-10-21T01:18:46.166Z,85.09
2022-10-21T01:19:50.563Z,85.34
2022-10-21T01:20:58.028Z,85.58
2022-10-21T01:22:04.213Z,85.79
2022-10-21T01:23:31.886Z,86.10
2022-10-21T01:24:51.840Z,86.35
2022-10-21T01:25:53.321Z,86.49
2022-10-21T01:26:59.890Z,86.68
2022-10-21T01:28:05.814Z,86.50
2022-10-21T01:29:16.048Z,86.58
2022-10-21T01:30:38.053Z,86.79
2022-10-21T01:31:43.007Z,87.12
2022-10-21T01:33:03.366Z,87.61
2022-10-21T01:34:07.874Z,87.84
2022-10-21T01:35:32.587Z,87.83
2022-10-21T01:36:41.659Z,88.45
2022-10-21T01:37:45.122Z,88.03
2022-10-21T01:39:03.386Z,88.35
2022-10-21T01:40:09.062Z,88.03
2022-10-21T01:41:13.187Z,87.56
2022-10-21T01:42:20.503Z,87.67
2022-10-21T01:43:24.530Z,87.37
2022-10-21T01:44:27.838Z,86.94
2022-10-21T01:45:29.278Z,86.87
2022-10-21T01:46:31.678Z,86.59
2022-10-21T01:47:33.916Z,86.34
2022-10-21T01:48:36.378Z,86.18
2022-10-21T01:49:42.291Z,86.06
2022-10-21T01:50:59.574Z,86.54
2022-10-21T01:52:03.608Z,86.66
2022-10-21T01:53:06.487Z,86.70
2022-10-21T01:54:09.585Z,86.73
2022-10-21T01:55:12.602Z,86.52
2022-10-21T01:56:14.128Z,86.18
2022-10-21T01:57:16.013Z,86.21
2022-10-21T01:58:21.820Z,86.08
2022-10-21T01:59:23.271Z,86.36
2022-10-21T02:01:32.639Z,85.88
2022-10-21T02:02:36.188Z,85.63
2022-10-21T02:03:38.762Z,85.48
2022-10-21T02:04:41.083Z,85.49
2022-10-21T02:05:42.525Z,85.79
2022-10-21T02:06:44.007Z,86.12
2022-10-21T02:07:45.607Z,86.32
2022-10-21T02:08:47.199Z,86.12
2022-10-21T02:09:48.750Z,85.72
2022-10-21T02:10:51.597Z,85.55
2022-10-21T02:11:53.990Z,85.20
2022-10-21T02:12:56.334Z,85.08
2022-10-21T02:13:59.103Z,84.92
2022-10-21T02:15:00.609Z,84.37
2022-10-21T02:16:02.659Z,84.62
2022-10-21T02:17:04.168Z,84.90
2022-10-21T02:18:07.325Z,85.25
2022-10-21T02:19:13.727Z,84.86
2022-10-21T02:20:15.184Z,84.92
2022-10-21T02:21:18.969Z,84.86
2022-10-21T02:22:20.724Z,84.52
2022-10-21T02:23:23.619Z,85.02
2022-10-21T02:24:36.710Z,85.53
2022-10-21T02:25:38.636Z,85.55
2022-10-21T02:26:40.087Z,85.21
2022-10-21T02:27:41.567Z,85.13
2022-10-21T02:28:43.184Z,85.13
2022-10-21T02:29:44.671Z,84.88
2022-10-21T02:30:50.091Z,85.13
2022-10-21T02:32:20.757Z,85.31
2022-10-21T02:33:42.502Z,85.32
2022-10-21T02:35:20.450Z,85.26
2022-10-21T02:36:29.041Z,85.57
2022-10-21T02:37:49.297Z,86.21
2022-10-21T02:38:52.375Z,86.05
2022-10-21T02:39:57.271Z,86.01
2022-10-21T02:41:01.890Z,85.94
2022-10-21T02:42:04.355Z,86.13
2022-10-21T02:43:07.150Z,86.01
2022-10-21T02:44:08.638Z,86.07
2022-10-21T02:45:10.578Z,85.44
2022-10-21T02:46:12.356Z,85.98
2022-10-21T02:47:15.305Z,85.95
2022-10-21T02:48:16.843Z,85.83
2022-10-21T02:49:18.315Z,86.01
2022-10-21T02:50:19.944Z,85.47
2022-10-21T02:51:21.378Z,85.89
2022-10-21T02:52:22.891Z,85.94
2022-10-21T02:53:24.336Z,85.87
2022-10-21T02:54:25.810Z,86.22
2022-10-21T02:55:27.286Z,85.73
2022-10-21T02:57:31.226Z,86.97
2022-10-21T02:58:32.664Z,86.68
2022-10-21T02:59:34.135Z,86.91
2022-10-21T03:00:35.631Z,86.98
2022-10-21T03:01:37.082Z,86.67
2022-10-21T03:02:38.651Z,86.50
2022-10-21T03:03:40.142Z,86.42
2022-10-21T03:04:41.638Z,86.34
2022-10-21T03:05:43.179Z,85.98
2022-10-21T03:06:44.658Z,85.93
2022-10-21T03:07:46.184Z,85.82
2022-10-21T03:08:47.720Z,85.71
2022-10-21T03:09:49.287Z,85.69
2022-10-21T03:10:53.134Z,85.66
2022-10-21T03:11:55.193Z,85.64
2022-10-21T03:12:56.655Z,85.34
2022-10-21T03:13:58.129Z,85.78
2022-10-21T03:14:59.611Z,85.63
2022-10-21T03:16:01.147Z,85.45
2022-10-21T03:17:02.683Z,85.16
2022-10-21T03:18:04.150Z,85.16
2022-10-21T03:19:05.690Z,85.16
2022-10-21T03:20:07.435Z,85.08
2022-10-21T03:21:08.917Z,85.28
2022-10-21T03:22:10.449Z,85.55
2022-10-21T03:23:11.907Z,85.97
2022-10-21T03:24:24.973Z,85.60
2022-10-21T03:25:34.284Z,85.65
2022-10-21T03:26:36.865Z,85.83
2022-10-21T03:27:38.350Z,85.82
2022-10-21T03:28:39.878Z,85.94
2022-10-21T03:29:41.328Z,85.95
2022-10-21T03:30:42.851Z,86.44
2022-10-21T03:31:44.371Z,86.38
2022-10-21T03:32:45.828Z,86.54
2022-10-21T03:33:47.397Z,86.54
2022-10-21T03:34:48.856Z,86.24
2022-10-21T03:35:50.373Z,86.38
2022-10-21T03:36:51.885Z,86.34
2022-10-21T03:37:53.471Z,86.32
2022-10-21T03:38:54.991Z,85.88
2022-10-21T03:39:56.522Z,85.77
2022-10-21T03:40:58.039Z,85.53
2022-10-21T03:41:59.498Z,85.30
2022-10-21T03:43:01.031Z,85.77
2022-10-21T03:44:02.501Z,86.56
2022-10-21T03:45:04.100Z,86.51
2022-10-21T03:46:05.608Z,87.12
2022-10-21T03:47:07.164Z,87.33
2022-10-21T03:48:08.708Z,87.28
2022-10-21T03:49:17.081Z,87.75
2022-10-21T03:50:26.091Z,87.38
2022-10-21T03:51:28.189Z,87.18
2022-10-21T03:52:29.765Z,86.97
2022-10-21T03:53:42.933Z,86.88
2022-10-21T03:54:44.987Z,87.35
2022-10-21T03:55:46.516Z,87.18
2022-10-21T03:56:48.045Z,87.20
2022-10-21T03:57:49.647Z,87.11
2022-10-21T03:58:54.014Z,86.70
2022-10-21T03:59:59.251Z,86.73
2022-10-21T04:01:00.835Z,86.51
2022-10-21T04:02:02.410Z,86.24
2022-10-21T04:03:04.002Z,86.22
2022-10-21T04:04:05.455Z,86.56
2022-10-21T04:05:07.294Z,86.63
2022-10-21T04:06:08.780Z,86.59
2022-10-21T04:07:10.282Z,86.38
2022-10-21T04:08:11.818Z,86.43
2022-10-21T04:09:13.321Z,86.33
2022-10-21T04:10:14.844Z,86.42
2022-10-21T04:11:16.369Z,86.76
2022-10-21T04:12:17.832Z,86.48
2022-10-21T04:13:19.354Z,86.86
2022-10-21T04:14:20.913Z,86.96
2022-10-21T04:15:22.372Z,86.95
2022-10-21T04:16:23.888Z,86.67
2022-10-21T04:17:25.452Z,87.09
2022-10-21T04:18:26.958Z,86.55
2022-10-21T04:19:28.472Z,86.87
2022-10-21T04:20:29.964Z,87.43
2022-10-21T04:21:31.462Z,87.56
2022-10-21T04:22:32.998Z,87.42
2022-10-21T04:23:34.729Z,87.34
2022-10-21T04:24:36.222Z,87.49
2022-10-21T04:25:37.714Z,87.90
2022-10-21T04:26:39.283Z,87.70
2022-10-21T04:27:40.762Z,87.46
2022-10-21T04:28:42.246Z,87.62
2022-10-21T04:29:43.742Z,87.27
2022-10-21T04:30:45.259Z,87.06
2022-10-21T04:31:46.766Z,87.12
2022-10-21T04:32:50.702Z,87.17
2022-10-21T04:33:52.366Z,86.81
2022-10-21T04:34:54.148Z,86.42
2022-10-21T04:35:55.725Z,86.27
2022-10-21T04:37:01.013Z,85.99
2022-10-21T04:38:05.638Z,85.76
2022-10-21T04:39:07.201Z,85.55
2022-10-21T04:40:09.076Z,85.56
2022-10-21T04:41:10.560Z,85.67
2022-10-21T04:42:12.159Z,85.47
2022-10-21T04:43:13.673Z,85.97
2022-10-21T04:44:15.191Z,86.20
2022-10-21T04:45:17.177Z,86.25
2022-10-21T04:46:20.796Z,86.18
2022-10-21T04:47:22.267Z,86.73
2022-10-21T04:48:23.785Z,86.58
2022-10-21T04:49:25.393Z,86.44
2022-10-21T04:50:26.930Z,86.55
2022-10-21T04:51:28.496Z,86.72
2022-10-21T04:52:30.100Z,86.25
2022-10-21T04:53:31.587Z,86.08
2022-10-21T04:54:33.146Z,86.34
2022-10-21T04:55:34.646Z,85.99
2022-10-21T04:56:36.110Z,85.80
2022-10-21T04:57:37.641Z,85.93
2022-10-21T04:58:39.104Z,85.79
2022-10-21T04:59:40.625Z,85.72
2022-10-21T05:00:42.124Z,86.08
2022-10-21T05:01:43.593Z,86.02
2022-10-21T05:02:45.102Z,85.78
2022-10-21T05:03:46.578Z,85.60
2022-10-21T05:04:48.112Z,85.72
2022-10-21T05:05:50.434Z,85.59
2022-10-21T05:06:51.908Z,85.41
2022-10-21T05:07:53.452Z,85.63
2022-10-21T05:08:54.955Z,85.61
2022-10-21T05:09:56.547Z,85.81
2022-10-21T05:10:59.210Z,86.24
2022-10-21T05:12:00.868Z,86.05
2022-10-21T05:13:02.346Z,86.00
2022-10-21T05:14:03.852Z,85.84
2022-10-21T05:15:05.507Z,85.93
2022-10-21T05:16:07.116Z,85.70
2022-10-21T05:17:08.568Z,86.04
2022-10-21T05:18:10.076Z,86.55
2022-10-21T05:19:11.821Z,86.54
2022-10-21T05:20:13.331Z,86.81
2022-10-21T05:21:14.984Z,86.60
2022-10-21T05:22:16.435Z,86.55
2022-10-21T05:23:18.004Z,86.64
2022-10-21T05:24:19.523Z,86.54
2022-10-21T05:25:21.377Z,87.44
2022-10-21T05:26:24.267Z,87.52
2022-10-21T05:27:25.775Z,87.33
2022-10-21T05:28:27.239Z,87.77
2022-10-21T05:29:28.717Z,87.67
2022-10-21T05:30:30.404Z,88.14
2022-10-21T05:31:31.876Z,88.01
2022-10-21T05:32:33.322Z,87.65
2022-10-21T05:33:34.827Z,87.67
2022-10-21T05:34:36.263Z,87.24
2022-10-21T05:35:37.807Z,87.00
2022-10-21T05:36:39.263Z,87.02
2022-10-21T05:37:40.749Z,86.71
2022-10-21T05:38:42.207Z,86.62
2022-10-21T05:39:43.699Z,86.13
2022-10-21T05:40:45.343Z,85.91
2022-10-21T05:41:48.075Z,86.02
2022-10-21T05:42:49.805Z,86.00
2022-10-21T05:43:51.305Z,86.00
2022-10-21T05:44:52.777Z,85.74
2022-10-21T05:45:54.268Z,85.60
2022-10-21T05:46:55.736Z,85.80
2022-10-21T05:47:57.263Z,85.55
2022-10-21T05:48:58.817Z,85.54
2022-10-21T05:50:00.272Z,85.27
2022-10-21T05:51:01.809Z,85.14
2022-10-21T05:52:03.297Z,85.11
2022-10-21T05:53:04.844Z,84.85
2022-10-21T05:54:06.438Z,84.64
2022-10-21T05:55:08.276Z,84.75
2022-10-21T05:56:10.476Z,84.46
2022-10-21T05:57:11.960Z,84.60
2022-10-21T05:58:13.490Z,84.63
2022-10-21T05:59:14.998Z,84.69
2022-10-21T06:00:16.498Z,84.66
2022-10-21T06:01:18.292Z,84.83
2022-10-21T06:02:19.819Z,84.57
2022-10-21T06:03:22.460Z,84.48
2022-10-21T06:04:24.004Z,84.70
2022-10-21T06:05:25.512Z,84.58
2022-10-21T06:06:26.964Z,84.59
2022-10-21T06:07:28.416Z,84.70
2022-10-21T06:08:30.443Z,84.50
2022-10-21T06:09:32.013Z,84.40
2022-10-21T06:10:33.450Z,84.47
2022-10-21T06:11:34.917Z,84.29
2022-10-21T06:12:36.373Z,84.18
2022-10-21T06:13:38.003Z,84.15
2022-10-21T06:14:39.512Z,83.97
2022-10-21T06:15:41.027Z,83.91
2022-10-21T06:16:42.515Z,83.82
2022-10-21T06:17:43.998Z,83.75
2022-10-21T06:18:45.476Z,83.72
2022-10-21T06:19:50.030Z,83.74
2022-10-21T06:20:52.558Z,83.71
2022-10-21T06:21:54.300Z,83.52
2022-10-21T06:22:55.765Z,83.44
2022-10-21T06:23:57.280Z,83.36
2022-10-21T06:24:58.773Z,83.39
2022-10-21T06:26:11.171Z,83.30
2022-10-21T06:27:13.776Z,83.28
2022-10-21T06:28:15.234Z,83.69
2022-10-21T06:29:17.480Z,83.49
2022-10-21T06:30:19.095Z,83.32
2022-10-21T06:31:23.340Z,83.23
2022-10-21T06:32:24.897Z,83.29
2022-10-21T06:33:27.265Z,83.31
2022-10-21T06:34:29.031Z,83.19
2022-10-21T06:35:30.540Z,83.05
2022-10-21T06:36:32.083Z,83.09
2022-10-21T06:37:33.646Z,83.02
2022-10-21T06:38:36.973Z,83.01
2022-10-21T06:39:38.479Z,83.07
2022-10-21T06:40:39.998Z,82.92
2022-10-21T06:41:41.472Z,83.03
2022-10-21T06:42:42.944Z,83.04
2022-10-21T06:43:44.472Z,83.16
2022-10-21T06:44:46.030Z,83.21
2022-10-21T06:45:47.548Z,83.38
2022-10-21T06:46:49.168Z,83.32
2022-10-21T06:47:50.673Z,83.25
2022-10-21T06:48:52.346Z,83.24
2022-10-21T06:49:53.867Z,83.09
2022-10-21T06:50:58.961Z,83.17
2022-10-21T06:52:00.539Z,83.06
2022-10-21T06:53:03.470Z,83.32
2022-10-21T06:54:07.524Z,83.21
2022-10-21T06:55:09.181Z,83.34
2022-10-21T06:56:11.589Z,83.64
2022-10-21T06:57:13.327Z,83.48
2022-10-21T06:58:14.916Z,83.62
2022-10-21T06:59:16.784Z,83.45
2022-10-21T07:00:18.543Z,83.51
2022-10-21T07:01:33.428Z,83.41
2022-10-21T07:02:37.004Z,83.42
2022-10-21T07:03:38.640Z,83.41
2022-10-21T07:04:44.472Z,83.42
2022-10-21T07:05:46.047Z,83.48
2022-10-21T07:06:49.073Z,83.38
2022-10-21T07:07:50.571Z,83.33
2022-10-21T07:08:59.580Z,83.05
2022-10-21T07:10:01.277Z,83.30
2022-10-21T07:11:02.820Z,83.36
2022-10-21T07:12:04.879Z,83.13
2022-10-21T07:13:06.482Z,83.19
2022-10-21T07:14:08.040Z,83.16
2022-10-21T07:15:09.899Z,83.35
2022-10-21T07:16:16.007Z,83.24
2022-10-21T07:17:17.654Z,83.30
2022-10-21T07:18:19.232Z,83.29
2022-10-21T07:19:20.769Z,83.22
2022-10-21T07:20:22.441Z,83.07
2022-10-21T07:21:25.054Z,83.33
2022-10-21T07:22:26.679Z,83.75
2022-10-21T07:23:28.203Z,83.68
2022-10-21T07:24:29.706Z,83.68
2022-10-21T07:25:31.199Z,83.59
2022-10-21T07:26:32.892Z,83.88
2022-10-21T07:27:34.492Z,83.90
2022-10-21T07:28:36.056Z,83.85
2022-10-21T07:29:37.773Z,83.92
2022-10-21T07:30:42.845Z,84.27
2022-10-21T07:31:44.454Z,84.11
2022-10-21T07:32:45.938Z,84.19
2022-10-21T07:33:47.571Z,83.90
2022-10-21T07:34:49.133Z,83.99
2022-10-21T07:35:50.764Z,83.73
2022-10-21T07:36:52.967Z,83.99
2022-10-21T07:37:54.500Z,84.22
2022-10-21T07:38:57.289Z,83.91
2022-10-21T07:39:58.913Z,84.01
2022-10-21T07:41:00.464Z,84.16
2022-10-21T07:42:02.405Z,83.84
2022-10-21T07:43:03.913Z,84.11
2022-10-21T07:44:05.833Z,84.22
2022-10-21T07:45:07.531Z,84.10
2022-10-21T07:46:09.059Z,83.96
2022-10-21T07:47:10.600Z,83.73
2022-10-21T07:48:12.227Z,83.84
2022-10-21T07:49:14.098Z,83.86
2022-10-21T07:50:16.218Z,83.90
2022-10-21T07:51:18.725Z,83.75
2022-10-21T07:52:20.233Z,83.60
2022-10-21T07:53:25.852Z,83.57
2022-10-21T07:54:27.357Z,83.53
2022-10-21T07:55:28.926Z,83.37
2022-10-21T07:56:34.653Z,83.34
2022-10-21T07:57:36.452Z,83.34
2022-10-21T07:58:37.960Z,83.40
2022-10-21T07:59:39.491Z,83.34
2022-10-21T08:00:42.957Z,83.24
2022-10-21T08:01:45.808Z,83.49
2022-10-21T08:02:47.567Z,83.31
2022-10-21T08:03:49.090Z,83.25
2022-10-21T08:04:52.165Z,83.29
2022-10-21T08:05:53.674Z,83.38
2022-10-21T08:06:55.588Z,83.27
2022-10-21T08:07:58.864Z,83.17
2022-10-21T08:09:00.592Z,83.07
2022-10-21T08:10:08.719Z,83.14
2022-10-21T08:11:10.852Z,83.22
2022-10-21T08:12:14.513Z,83.08
2022-10-21T08:13:17.020Z,83.29
2022-10-21T08:14:18.565Z,83.04
2022-10-21T08:15:20.079Z,83.16
2022-10-21T08:16:21.637Z,83.32
2022-10-21T08:17:23.259Z,83.18
2022-10-21T08:18:26.231Z,83.29
2022-10-21T08:19:29.697Z,83.70
2022-10-21T08:20:31.322Z,83.83
2022-10-21T08:21:32.825Z,83.59
2022-10-21T08:22:34.386Z,83.73
2022-10-21T08:23:36.083Z,83.86
2022-10-21T08:24:40.008Z,84.28
2022-10-21T08:25:47.603Z,84.36
2022-10-21T08:26:49.515Z,84.68
2022-10-21T08:27:51.107Z,84.69
2022-10-21T08:28:52.642Z,84.51
2022-10-21T08:29:54.313Z,84.59
2022-10-21T08:31:05.233Z,84.78
2022-10-21T08:32:07.019Z,84.72
2022-10-21T08:33:08.626Z,84.57
2022-10-21T08:34:10.098Z,84.62
2022-10-21T08:35:11.604Z,84.54
2022-10-21T08:36:14.353Z,84.32
2022-10-21T08:37:15.855Z,84.58
2022-10-21T08:38:17.361Z,85.16
2022-10-21T08:39:19.012Z,84.95
2022-10-21T08:40:20.649Z,85.01
2022-10-21T08:41:27.892Z,85.09
2022-10-21T08:42:29.513Z,85.20
2022-10-21T08:43:32.987Z,85.36
2022-10-21T08:44:40.635Z,85.40
2022-10-21T08:46:04.920Z,85.64
2022-10-21T08:47:45.329Z,86.03
2022-10-21T08:48:48.054Z,86.02
2022-10-21T08:50:01.266Z,86.14
2022-10-21T08:51:02.788Z,85.88
2022-10-21T08:52:09.728Z,86.19
2022-10-21T08:53:18.956Z,86.00
2022-10-21T08:54:24.682Z,86.27
2022-10-21T08:55:36.367Z,86.30
2022-10-21T08:56:37.875Z,86.01
2022-10-21T08:57:39.477Z,86.07
2022-10-21T08:58:41.119Z,86.12
2022-10-21T08:59:42.804Z,85.93
2022-10-21T09:00:44.218Z,85.90
2022-10-21T09:01:51.392Z,86.12
2022-10-21T09:03:00.672Z,86.01
2022-10-21T09:04:08.347Z,85.92
2022-10-21T09:05:22.056Z,85.87
2022-10-21T09:06:34.600Z,85.93
2022-10-21T09:07:48.418Z,85.76
2022-10-21T09:08:58.380Z,85.85
2022-10-21T09:10:01.098Z,85.99
2022-10-21T09:11:15.644Z,85.74
2022-10-21T09:12:17.237Z,85.89
2022-10-21T09:13:18.906Z,86.37
2022-10-21T09:14:26.495Z,86.59
2022-10-21T09:15:28.365Z,86.56
2022-10-21T09:16:33.647Z,86.76
2022-10-21T09:17:35.463Z,86.59
2022-10-21T09:18:40.184Z,87.11
2022-10-21T09:19:48.091Z,86.88
2022-10-21T09:21:05.473Z,86.77
2022-10-21T09:22:34.307Z,86.48
2022-10-21T09:23:45.020Z,86.42
2022-10-21T09:24:49.141Z,86.18
2022-10-21T09:25:56.606Z,86.08
2022-10-21T09:26:58.642Z,85.85
2022-10-21T09:28:02.001Z,86.38
2022-10-21T09:29:27.095Z,86.17
2022-10-21T09:30:28.671Z,86.10
2022-10-21T09:31:30.275Z,85.91
2022-10-21T09:32:33.233Z,85.73
2022-10-21T09:33:34.829Z,85.62
2022-10-21T09:34:54.821Z,85.74
2022-10-21T09:36:16.100Z,85.43
2022-10-21T09:37:25.466Z,85.34
2022-10-21T09:38:28.862Z,85.21
2022-10-21T09:39:33.264Z,85.47
2022-10-21T09:40:34.801Z,85.50
2022-10-21T09:41:37.566Z,85.38
2022-10-21T09:42:47.942Z,85.37
2022-10-21T09:43:49.959Z,85.53
2022-10-21T09:44:51.478Z,85.49
2022-10-21T09:45:53.382Z,85.93
2022-10-21T09:46:55.439Z,86.06
2022-10-21T09:48:01.556Z,85.94
2022-10-21T09:50:24.522Z,86.41
2022-10-21T09:51:29.611Z,86.41
2022-10-21T09:52:31.493Z,87.08
2022-10-21T09:53:35.760Z,86.91
2022-10-21T09:54:37.907Z,87.28
2022-10-21T09:55:39.923Z,87.40
2022-10-21T09:56:43.704Z,87.10
2022-10-21T09:57:48.420Z,86.90
2022-10-21T09:58:51.281Z,87.04
2022-10-21T09:59:59.145Z,86.81
2022-10-21T10:01:00.743Z,87.30
2022-10-21T10:02:05.878Z,87.55
2022-10-21T10:03:09.061Z,88.11
2022-10-21T10:04:22.414Z,88.23
2022-10-21T10:05:33.551Z,88.58
2022-10-21T10:06:36.122Z,88.62
2022-10-21T10:07:37.609Z,88.53
2022-10-21T10:08:46.246Z,88.36
2022-10-21T10:09:47.945Z,88.30
2022-10-21T10:10:49.446Z,88.03
2022-10-21T10:11:53.777Z,88.17
2022-10-21T10:12:55.736Z,88.17
2022-10-21T10:13:57.308Z,88.10
2022-10-21T10:14:59.752Z,88.05
2022-10-21T10:16:13.511Z,87.82
2022-10-21T10:17:25.708Z,88.21
2022-10-21T10:18:27.180Z,88.42
2022-10-21T10:19:28.802Z,88.57
2022-10-21T10:20:30.345Z,88.27
2022-10-21T10:21:31.864Z,88.81
2022-10-21T10:22:41.827Z,88.54
2022-10-21T10:23:47.369Z,88.59
2022-10-21T10:24:48.848Z,88.64
2022-10-21T10:25:50.815Z,89.16
2022-10-21T10:26:52.427Z,89.17
2022-10-21T10:27:59.355Z,89.04
2022-10-21T10:29:03.314Z,88.83
2022-10-21T10:30:06.302Z,88.68
2022-10-21T10:31:08.238Z,88.56
2022-10-21T10:32:11.545Z,88.97
2022-10-21T10:33:20.171Z,88.86
2022-10-21T10:34:22.515Z,88.86
2022-10-21T10:35:27.079Z,88.92
2022-10-21T10:36:29.890Z,88.55
2022-10-21T10:37:31.895Z,88.43
2022-10-21T10:38:36.077Z,88.37
2022-10-21T10:39:38.482Z,88.34
2022-10-21T10:40:41.972Z,88.15
2022-10-21T10:41:45.814Z,87.91
2022-10-21T10:42:47.283Z,87.87
2022-10-21T10:43:49.568Z,87.86
2022-10-21T10:44:51.867Z,87.66
2022-10-21T10:45:54.176Z,87.64
2022-10-21T10:46:56.066Z,87.92
2022-10-21T10:48:00.558Z,87.94
2022-10-21T10:49:19.058Z,88.06
2022-10-21T10:50:38.514Z,87.79
2022-10-21T10:51:42.749Z,87.75
2022-10-21T10:52:44.340Z,87.90
2022-10-21T10:53:45.816Z,87.87
2022-10-21T10:54:47.575Z,87.63
2022-10-21T10:55:55.485Z,87.58
2022-10-21T10:57:00.279Z,87.61
2022-10-21T10:58:11.498Z,87.45
2022-10-21T10:59:35.556Z,88.19
2022-10-21T11:00:38.911Z,87.90
2022-10-21T11:01:46.324Z,88.04
2022-10-21T11:02:55.168Z,88.33
2022-10-21T11:04:01.382Z,88.37
2022-10-21T11:05:11.852Z,88.18
2022-10-21T11:06:21.688Z,88.42
2022-10-21T11:07:32.199Z,88.37
2022-10-21T11:08:37.541Z,88.28
2022-10-21T11:09:39.061Z,88.72
2022-10-21T11:10:47.072Z,88.92
2022-10-21T11:11:48.737Z,88.82
2022-10-21T11:12:50.230Z,88.94
2022-10-21T11:13:52.693Z,89.38
2022-10-21T11:14:54.927Z,89.50
2022-10-21T11:16:11.434Z,89.30
2022-10-21T11:17:13.440Z,89.18
2022-10-21T11:18:25.409Z,89.05
2022-10-21T11:19:33.795Z,89.79
2022-10-21T11:20:42.881Z,89.93
2022-10-21T11:21:45.766Z,90.04
2022-10-21T11:24:12.013Z,89.63
2022-10-21T11:25:16.545Z,89.94
2022-10-21T11:26:18.055Z,89.63
2022-10-21T11:27:38.398Z,88.92
2022-10-21T11:28:44.677Z,89.15
2022-10-21T11:30:15.182Z,89.31
2022-10-21T11:31:24.453Z,89.65
2022-10-21T11:32:55.111Z,89.73
2022-10-21T11:33:56.676Z,89.28
2022-10-21T11:35:13.409Z,88.92
2022-10-21T11:36:33.402Z,88.56
2022-10-21T11:37:46.903Z,88.45
2022-10-21T11:39:11.303Z,88.49
2022-10-21T11:40:30.914Z,88.16
2022-10-21T11:41:32.449Z,88.70
2022-10-21T11:42:43.172Z,89.03
2022-10-21T11:43:53.626Z,89.18
2022-10-21T11:45:01.236Z,89.04
2022-10-21T11:46:28.936Z,89.59
2022-10-21T11:47:30.416Z,89.81
2022-10-21T11:48:58.170Z,89.97
2022-10-21T11:49:59.732Z,90.01
2022-10-21T11:51:03.785Z,90.36
2022-10-21T11:52:07.693Z,91.03
2022-10-21T11:53:28.013Z,90.80
2022-10-21T11:54:58.283Z,90.99
2022-10-21T11:56:23.327Z,91.79
2022-10-21T11:57:24.761Z,91.48
2022-10-21T11:58:41.356Z,91.67
2022-10-21T11:59:56.643Z,91.71
2022-10-21T12:01:03.848Z,91.45
2022-10-21T12:02:05.336Z,91.52
2022-10-21T12:03:13.227Z,90.45
2022-10-21T12:04:19.343Z,89.85
2022-10-21T12:05:39.235Z,89.23
2022-10-21T12:06:50.182Z,89.54
2022-10-21T12:07:51.636Z,88.98
2022-10-21T12:09:00.150Z,88.70
2022-10-21T12:10:04.339Z,88.89
2022-10-21T12:11:10.217Z,88.61
2022-10-21T12:12:15.309Z,88.56
2022-10-21T12:13:18.399Z,87.71
2022-10-21T12:14:31.651Z,88.07
2022-10-21T12:15:43.413Z,87.46
2022-10-21T12:16:44.902Z,86.27
2022-10-21T12:17:47.971Z,86.89
2022-10-21T12:19:00.195Z,86.98
2022-10-21T12:20:03.624Z,87.20
2022-10-21T12:21:05.436Z,87.47
2022-10-21T12:22:07.234Z,87.62
2022-10-21T12:23:09.542Z,87.37
2022-10-21T12:24:11.021Z,87.35
2022-10-21T12:25:12.457Z,86.73
2022-10-21T12:26:16.921Z,86.26
2022-10-21T12:27:20.029Z,86.35
2022-10-21T12:28:39.816Z,86.74
2022-10-21T12:29:53.355Z,86.15
2022-10-21T12:30:56.511Z,86.15
2022-10-21T12:32:02.681Z,86.33
2022-10-21T12:33:04.447Z,85.83
2022-10-21T12:34:05.938Z,85.25
2022-10-21T12:35:16.749Z,85.35
2022-10-21T12:36:24.385Z,85.56
2022-10-21T12:37:38.388Z,85.33
2022-10-21T12:38:53.031Z,85.31
2022-10-21T12:40:08.354Z,85.70
2022-10-21T12:41:24.784Z,85.93
2022-10-21T12:42:27.999Z,85.72
2022-10-21T12:43:29.723Z,86.34
2022-10-21T12:44:31.277Z,86.91
2022-10-21T12:45:36.096Z,86.45
2022-10-21T12:46:40.077Z,84.03
2022-10-21T12:47:44.902Z,82.63
2022-10-21T12:48:46.401Z,80.67
2022-10-21T12:49:47.947Z,78.03
2022-10-21T12:50:59.089Z,79.74
2022-10-21T12:52:03.226Z,79.34
2022-10-21T12:53:07.852Z,79.41
2022-10-21T12:54:16.188Z,80.38
2022-10-21T12:55:24.188Z,78.96
2022-10-21T12:56:30.684Z,77.80
2022-10-21T12:57:32.924Z,75.77
2022-10-21T12:58:39.319Z,76.47
2022-10-21T12:59:41.515Z,76.80
2022-10-21T13:00:50.667Z,77.73
2022-10-21T13:02:10.402Z,77.58
2022-10-21T13:03:12.057Z,77.22
2022-10-21T13:04:31.929Z,76.93
2022-10-21T13:05:36.420Z,77.50
2022-10-21T13:06:53.059Z,76.96
2022-10-21T13:08:13.363Z,76.91
2022-10-21T13:09:32.897Z,75.81
2022-10-21T13:10:34.550Z,75.88
2022-10-21T13:11:35.967Z,74.79
2022-10-21T13:12:37.696Z,75.75
2022-10-21T13:13:39.329Z,73.84
2022-10-21T13:14:59.913Z,74.92
2022-10-21T13:16:21.478Z,74.96
2022-10-21T13:17:22.967Z,75.40
2022-10-21T13:18:43.167Z,75.41
2022-10-21T13:19:44.701Z,75.26
2022-10-21T13:20:46.390Z,75.60
2022-10-21T13:21:48.311Z,75.76
2022-10-21T13:22:50.372Z,76.01
2022-10-21T13:23:52.760Z,76.60
2022-10-21T13:24:54.313Z,74.52
2022-10-21T13:26:05.603Z,74.51
2022-10-21T13:27:25.721Z,74.73
2022-10-21T13:28:27.325Z,74.82
2022-10-21T13:29:28.848Z,75.11
2022-10-21T13:30:37.150Z,74.76
2022-10-21T13:31:38.711Z,73.78
2022-10-21T13:32:40.737Z,74.14
2022-10-21T13:33:48.672Z,74.38
2022-10-21T13:35:05.235Z,74.65
2022-10-21T13:36:10.791Z,75.24
2022-10-21T13:37:14.048Z,74.41
2022-10-21T13:38:18.361Z,74.61
2022-10-21T13:39:25.002Z,73.85
2022-10-21T13:40:28.430Z,74.24
2022-10-21T13:41:30.067Z,73.47
2022-10-21T13:42:33.911Z,73.66
2022-10-21T13:43:35.336Z,73.65
2022-10-21T13:44:37.785Z,73.34
2022-10-21T13:45:49.295Z,73.63
2022-10-21T13:46:50.807Z,73.94
2022-10-21T13:48:12.527Z,74.33
2022-10-21T13:49:24.893Z,74.51
2022-10-21T13:50:28.349Z,74.79
2022-10-21T13:51:30.863Z,74.59
2022-10-21T13:52:32.375Z,74.69
2022-10-21T13:53:37.864Z,74.12
2022-10-21T13:54:39.395Z,73.96
2022-10-21T13:55:40.880Z,74.12